createdAt,value
2022-09-12T00:01:16.244Z,43.50
2022-09-12T00:03:45.285Z,38.33
2022-09-12T00:06:21.819Z,34.77
2022-09-12T00:08:50.808Z,43.20
2022-09-12T00:11:18.598Z,49.10
2022-09-12T00:13:46.337Z,44.73
2022-09-12T00:16:18.280Z,46.00
2022-09-12T00:18:48.170Z,40.57
2022-09-12T00:21:16.962Z,42.70
2022-09-12T00:23:45.027Z,39.47
2022-09-12T00:26:13.524Z,40.23
2022-09-12T00:28:42.514Z,36.13
2022-09-12T00:31:12.682Z,38.83
2022-09-12T00:33:40.782Z,43.13
2022-09-12T00:36:12.145Z,40.53
2022-09-12T00:38:42.042Z,41.33
2022-09-12T00:41:16.219Z,42.57
2022-09-12T00:43:45.673Z,40.17
2022-09-12T00:46:22.003Z,35.97
2022-09-12T00:48:53.451Z,34.07
2022-09-12T00:51:22.912Z,36.47
2022-09-12T00:53:53.798Z,42.13
2022-09-12T00:56:24.420Z,38.43
2022-09-12T00:58:56.854Z,46.50
2022-09-12T01:01:27.365Z,37.63
2022-09-12T01:03:58.183Z,35.27
2022-09-12T01:06:31.020Z,44.67
2022-09-12T01:08:59.337Z,35.60
2022-09-12T01:11:27.772Z,32.67
2022-09-12T01:13:55.764Z,46.67
2022-09-12T01:16:23.477Z,36.63
2022-09-12T01:19:03.455Z,30.33
2022-09-12T01:21:44.709Z,34.00
2022-09-12T01:24:37.527Z,36.27
2022-09-12T01:27:49.717Z,34.13
2022-09-12T01:30:36.172Z,40.53
2022-09-12T01:33:26.134Z,28.30
2022-09-12T01:36:08.687Z,31.37
2022-09-12T01:38:40.269Z,30.17
2022-09-12T01:41:15.241Z,31.67
2022-09-12T01:43:48.249Z,33.97
2022-09-12T01:46:20.330Z,26.70
2022-09-12T01:48:53.106Z,31.60
2022-09-12T01:51:27.207Z,29.33
2022-09-12T01:54:00.792Z,37.20
2022-09-12T01:56:32.686Z,28.93
2022-09-12T01:59:05.436Z,32.13
2022-09-12T02:01:39.154Z,29.57
2022-09-12T02:04:11.181Z,41.20
2022-09-12T02:06:47.346Z,29.30
2022-09-12T02:09:20.751Z,32.20
2022-09-12T02:11:51.796Z,34.20
2022-09-12T02:14:25.476Z,33.77
2022-09-12T02:17:01.353Z,29.40
2022-09-12T02:19:32.391Z,29.17
2022-09-12T02:22:03.311Z,28.93
2022-09-12T02:24:34.330Z,46.50
2022-09-12T02:27:07.098Z,29.30
2022-09-12T02:29:34.913Z,23.73
2022-09-12T02:32:08.019Z,29.37
2022-09-12T02:34:46.220Z,27.13
2022-09-12T02:37:25.630Z,26.43
2022-09-12T02:39:55.154Z,24.53
2022-09-12T02:42:23.445Z,29.60
2022-09-12T02:44:52.439Z,28.30
2022-09-12T02:47:29.154Z,29.70
2022-09-12T02:49:57.788Z,26.30
2022-09-12T02:52:26.548Z,27.20
2022-09-12T02:54:55.679Z,25.27
2022-09-12T02:57:23.432Z,34.17
2022-09-12T02:59:53.827Z,33.93
2022-09-12T03:02:30.187Z,30.03
2022-09-12T03:05:08.366Z,28.60
2022-09-12T03:07:53.157Z,25.03
2022-09-12T03:10:26.711Z,27.63
2022-09-12T03:13:06.284Z,27.60
2022-09-12T03:15:45.445Z,24.07
2022-09-12T03:18:33.180Z,26.50
2022-09-12T03:21:05.613Z,34.20
2022-09-12T03:23:39.713Z,27.93
2022-09-12T03:26:13.710Z,24.53
2022-09-12T03:28:43.227Z,20.00
2022-09-12T03:31:15.464Z,22.70
2022-09-12T03:33:45.001Z,24.37
2022-09-12T03:36:17.890Z,27.90
2022-09-12T03:38:45.669Z,23.77
2022-09-12T03:41:13.372Z,24.53
2022-09-12T03:43:40.972Z,22.33
2022-09-12T03:46:08.996Z,26.40
2022-09-12T03:48:37.020Z,28.17
2022-09-12T03:51:08.047Z,24.40
2022-09-12T03:53:36.059Z,26.53
2022-09-12T03:56:08.021Z,24.33
2022-09-12T03:58:36.487Z,25.70
2022-09-12T04:01:12.076Z,20.90
2022-09-12T04:03:40.830Z,21.70
2022-09-12T04:06:12.014Z,27.60
2022-09-12T04:08:39.828Z,20.20
2022-09-12T04:11:08.720Z,21.70
2022-09-12T04:13:36.863Z,20.80
2022-09-12T04:16:05.723Z,22.13
2022-09-12T04:18:33.987Z,21.07
2022-09-12T04:21:05.145Z,20.97
2022-09-12T04:23:34.498Z,22.40
2022-09-12T04:26:03.644Z,22.53
2022-09-12T04:28:32.494Z,19.20
2022-09-12T04:31:02.924Z,20.47
2022-09-12T04:33:30.598Z,24.03
2022-09-12T04:35:58.300Z,22.80
2022-09-12T04:38:26.619Z,22.70
2022-09-12T04:40:55.704Z,26.60
2022-09-12T04:43:23.418Z,19.33
2022-09-12T04:45:51.176Z,26.93
2022-09-12T04:48:18.798Z,28.37
2022-09-12T04:50:46.459Z,23.07
2022-09-12T04:53:14.075Z,23.23
2022-09-12T04:55:41.872Z,20.23
2022-09-12T04:58:10.876Z,24.57
2022-09-12T05:00:38.501Z,31.07
2022-09-12T05:03:06.174Z,27.47
2022-09-12T05:05:33.820Z,21.83
2022-09-12T05:08:01.529Z,24.80
2022-09-12T05:10:29.610Z,21.83
2022-09-12T05:12:57.360Z,23.03
2022-09-12T05:15:26.362Z,25.40
2022-09-12T05:17:54.067Z,21.10
2022-09-12T05:20:21.679Z,19.10
2022-09-12T05:22:49.396Z,25.33
2022-09-12T05:25:17.330Z,22.00
2022-09-12T05:27:48.632Z,20.60
2022-09-12T05:30:18.313Z,22.27
2022-09-12T05:32:47.346Z,18.37
2022-09-12T05:35:15.067Z,15.97
2022-09-12T05:37:44.092Z,25.40
2022-09-12T05:40:13.659Z,19.30
2022-09-12T05:42:41.525Z,16.67
2022-09-12T05:45:09.842Z,16.40
2022-09-12T05:47:37.574Z,17.13
2022-09-12T05:50:10.948Z,16.27
2022-09-12T05:52:38.821Z,13.87
2022-09-12T05:55:07.390Z,12.00
2022-09-12T05:57:35.776Z,15.23
2022-09-12T06:00:05.246Z,17.23
2022-09-12T06:02:39.803Z,9.83
2022-09-12T06:05:09.714Z,12.73
2022-09-12T06:07:37.509Z,12.67
2022-09-12T06:10:05.601Z,10.30
2022-09-12T06:12:33.240Z,13.97
2022-09-12T06:15:01.093Z,9.50
2022-09-12T06:17:28.786Z,12.67
2022-09-12T06:19:56.898Z,11.17
2022-09-12T06:22:26.037Z,9.07
2022-09-12T06:24:57.774Z,11.97
2022-09-12T06:27:25.885Z,11.80
2022-09-12T06:29:53.751Z,13.33
2022-09-12T06:32:21.466Z,9.13
2022-09-12T06:34:49.295Z,8.07
2022-09-12T06:37:17.109Z,9.77
2022-09-12T06:39:46.967Z,12.40
2022-09-12T06:42:15.365Z,9.20
2022-09-12T06:44:52.006Z,9.33
2022-09-12T06:47:21.058Z,13.30
2022-09-12T06:49:48.965Z,9.27
2022-09-12T06:52:16.670Z,8.03
2022-09-12T06:54:46.607Z,8.63
2022-09-12T06:57:14.715Z,13.77
2022-09-12T06:59:42.400Z,7.90
2022-09-12T07:02:10.385Z,9.50
2022-09-12T07:04:38.107Z,7.57
2022-09-12T07:07:05.934Z,13.23
2022-09-12T07:09:33.974Z,7.70
2022-09-12T07:12:04.370Z,8.00
2022-09-12T07:14:32.031Z,9.77
2022-09-12T07:16:59.702Z,9.03
2022-09-12T07:19:27.469Z,9.10
2022-09-12T07:21:58.492Z,8.97
2022-09-12T07:24:26.643Z,10.03
2022-09-12T07:26:54.721Z,8.50
2022-09-12T07:29:39.289Z,10.17
2022-09-12T07:32:07.657Z,9.97
2022-09-12T07:34:36.735Z,9.53
2022-09-12T07:37:04.630Z,10.40
2022-09-12T07:39:32.545Z,8.90
2022-09-12T07:42:00.901Z,8.90
2022-09-12T07:44:30.167Z,8.87
2022-09-12T07:46:57.913Z,9.67
2022-09-12T07:49:25.813Z,9.83
2022-09-12T07:51:53.841Z,11.13
2022-09-12T07:54:21.712Z,9.50
2022-09-12T07:56:49.529Z,12.13
2022-09-12T07:59:35.329Z,11.20
2022-09-12T08:02:06.675Z,10.80
2022-09-12T08:04:36.370Z,10.37
2022-09-12T08:07:04.180Z,13.03
2022-09-12T08:09:31.848Z,10.43
2022-09-12T08:11:59.566Z,12.87
2022-09-12T08:14:27.536Z,13.40
2022-09-12T08:16:55.415Z,11.30
2022-09-12T08:19:25.290Z,13.33
2022-09-12T08:21:52.994Z,10.33
2022-09-12T08:24:20.716Z,11.27
2022-09-12T08:26:48.312Z,9.37
2022-09-12T08:29:16.246Z,11.43
2022-09-12T08:31:44.035Z,9.87
2022-09-12T08:34:11.705Z,12.90
2022-09-12T08:36:41.174Z,10.90
2022-09-12T08:39:08.983Z,9.60
2022-09-12T08:41:39.566Z,11.17
2022-09-12T08:44:45.926Z,9.43
2022-09-12T08:47:23.845Z,12.10
2022-09-12T08:50:11.641Z,10.23
2022-09-12T08:52:48.176Z,9.30
2022-09-12T08:55:31.423Z,10.17
2022-09-12T08:58:00.752Z,8.60
2022-09-12T09:00:37.962Z,9.37
2022-09-12T09:03:33.798Z,7.70
2022-09-12T09:06:08.215Z,8.93
2022-09-12T09:08:47.909Z,7.80
2022-09-12T09:11:33.116Z,6.93
2022-09-12T09:14:32.856Z,8.83
2022-09-12T09:17:01.649Z,5.77
2022-09-12T09:19:33.576Z,6.60
2022-09-12T09:22:06.320Z,6.77
2022-09-12T09:24:41.156Z,6.87
2022-09-12T09:27:39.476Z,6.60
2022-09-12T09:30:05.407Z,5.50
2022-09-12T09:32:37.758Z,6.20
2022-09-12T09:35:16.495Z,5.77
2022-09-12T09:37:55.562Z,5.27
2022-09-12T09:40:36.342Z,6.47
2022-09-12T09:43:10.903Z,5.30
2022-09-12T09:45:39.225Z,5.10
2022-09-12T09:48:17.390Z,4.90
2022-09-12T09:50:49.226Z,4.37
2022-09-12T09:53:36.031Z,4.20
2022-09-12T09:56:11.207Z,7.33
2022-09-12T09:58:41.364Z,3.83
2022-09-12T10:01:16.655Z,5.23
2022-09-12T10:03:50.518Z,5.10
2022-09-12T10:06:27.507Z,6.03
2022-09-12T10:09:08.281Z,4.77
2022-09-12T10:11:42.511Z,2.70
2022-09-12T10:14:30.170Z,4.13
2022-09-12T10:16:59.591Z,2.83
2022-09-12T10:19:36.064Z,2.83
2022-09-12T10:22:05.455Z,3.40
2022-09-12T10:24:36.603Z,3.73
2022-09-12T10:27:15.591Z,3.20
2022-09-12T10:29:48.432Z,3.57
2022-09-12T10:32:30.491Z,4.40
2022-09-12T10:35:01.569Z,3.80
2022-09-12T10:37:33.388Z,3.50
2022-09-12T10:40:03.677Z,4.53
2022-09-12T10:42:48.176Z,4.63
2022-09-12T10:45:22.112Z,3.40
2022-09-12T10:47:50.404Z,4.20
2022-09-12T10:50:26.315Z,4.97
2022-09-12T10:52:54.566Z,3.77
2022-09-12T10:55:29.539Z,4.83
2022-09-12T10:58:28.466Z,3.57
2022-09-12T11:01:03.406Z,4.57
2022-09-12T11:03:47.422Z,3.80
2022-09-12T11:06:21.347Z,4.37
2022-09-12T11:09:00.802Z,4.00
2022-09-12T11:11:43.869Z,3.03
2022-09-12T11:14:24.755Z,5.10
2022-09-12T11:17:00.228Z,3.33
2022-09-12T11:19:50.944Z,5.70
2022-09-12T11:22:35.440Z,3.30
2022-09-12T11:25:29.842Z,3.30
2022-09-12T11:28:17.971Z,2.67
2022-09-12T11:31:04.089Z,2.53
2022-09-12T11:33:43.177Z,3.63
2022-09-12T11:36:22.297Z,6.13
2022-09-12T11:39:03.212Z,2.57
2022-09-12T11:41:35.691Z,3.50
2022-09-12T11:44:14.018Z,3.63
2022-09-12T11:46:47.621Z,2.23
2022-09-12T11:49:22.058Z,3.80
2022-09-12T11:51:54.871Z,3.37
2022-09-12T11:54:29.017Z,2.80
2022-09-12T11:57:05.089Z,3.40
2022-09-12T11:59:41.322Z,2.87
2022-09-12T12:02:19.894Z,3.20
2022-09-12T12:05:00.524Z,2.70
2022-09-12T12:07:42.218Z,3.47
2022-09-12T12:10:26.210Z,4.17
2022-09-12T12:12:56.168Z,3.63
2022-09-12T12:15:26.788Z,2.80
2022-09-12T12:18:05.881Z,3.27
2022-09-12T12:20:33.914Z,3.20
2022-09-12T12:23:02.240Z,4.13
2022-09-12T12:25:53.928Z,3.03
2022-09-12T12:29:00.185Z,3.50
2022-09-12T12:31:28.258Z,3.23
2022-09-12T12:34:04.127Z,4.60
2022-09-12T12:36:40.954Z,3.10
2022-09-12T12:39:55.564Z,2.50
2022-09-12T12:43:03.509Z,2.40
2022-09-12T12:46:12.839Z,4.40
2022-09-12T12:49:05.951Z,2.67
2022-09-12T12:51:49.900Z,2.93
2022-09-12T12:54:53.087Z,4.40
2022-09-12T12:57:27.992Z,3.17
2022-09-12T12:59:59.025Z,3.53
2022-09-12T13:02:32.083Z,5.67
2022-09-12T13:05:03.866Z,4.27
2022-09-12T13:07:36.870Z,3.07
2022-09-12T13:10:06.845Z,2.77
2022-09-12T13:12:37.477Z,2.53
2022-09-12T13:15:44.209Z,2.80
2022-09-12T13:18:14.506Z,2.60
2022-09-12T13:20:51.442Z,3.10
2022-09-12T13:23:23.980Z,2.80
2022-09-12T13:25:56.539Z,2.80
2022-09-12T13:28:24.752Z,2.83
2022-09-12T13:31:00.393Z,2.87
2022-09-12T13:33:35.880Z,2.40
2022-09-12T13:36:30.945Z,2.50
2022-09-12T13:39:10.609Z,2.80
2022-09-12T13:41:53.643Z,4.60
2022-09-12T13:44:23.528Z,3.83
2022-09-12T13:46:52.964Z,2.93
2022-09-12T13:49:24.057Z,2.40
2022-09-12T13:52:01.914Z,3.90
2022-09-12T13:54:31.304Z,2.60
2022-09-12T13:56:59.678Z,3.00
2022-09-12T13:59:27.857Z,2.90
2022-09-12T14:01:56.505Z,3.10
2022-09-12T14:04:44.300Z,6.10
2022-09-12T14:07:17.112Z,2.77
2022-09-12T14:09:47.054Z,3.03
2022-09-12T14:12:22.072Z,3.53
2022-09-12T14:14:52.569Z,3.30
2022-09-12T14:17:27.446Z,2.40
2022-09-12T14:19:59.268Z,3.33
2022-09-12T14:22:29.788Z,5.50
2022-09-12T14:24:59.508Z,3.10
2022-09-12T14:27:30.157Z,2.63
2022-09-12T14:30:02.959Z,3.77
2022-09-12T14:32:31.003Z,2.93
2022-09-12T14:35:19.197Z,2.90
2022-09-12T14:37:51.467Z,6.40
2022-09-12T14:40:21.860Z,6.13
2022-09-12T14:42:51.800Z,3.77
2022-09-12T14:45:26.152Z,2.97
2022-09-12T14:47:54.749Z,2.80
2022-09-12T14:50:26.131Z,3.27
2022-09-12T14:53:06.397Z,2.70
2022-09-12T14:55:36.224Z,3.10
2022-09-12T14:58:17.010Z,5.83
2022-09-12T15:01:01.849Z,3.43
2022-09-12T15:03:32.661Z,4.20
2022-09-12T15:06:03.353Z,3.80
2022-09-12T15:08:33.263Z,2.70
2022-09-12T15:11:01.437Z,2.60
2022-09-12T15:13:30.769Z,3.00
2022-09-12T15:16:00.150Z,3.50
2022-09-12T15:18:29.445Z,3.93
2022-09-12T15:20:59.163Z,3.07
2022-09-12T15:23:40.096Z,4.57
2022-09-12T15:26:08.495Z,3.20
2022-09-12T15:28:36.167Z,2.63
2022-09-12T15:31:08.499Z,2.70
2022-09-12T15:33:36.386Z,2.70
2022-09-12T15:36:04.112Z,3.07
2022-09-12T15:38:31.845Z,3.03
2022-09-12T15:41:00.883Z,2.17
2022-09-12T15:43:28.531Z,2.97
2022-09-12T15:45:56.361Z,2.13
2022-09-12T15:48:24.528Z,2.53
2022-09-12T15:50:52.156Z,2.30
2022-09-12T15:53:19.947Z,4.23
2022-09-12T15:55:47.679Z,2.30
2022-09-12T15:58:16.710Z,2.87
2022-09-12T16:00:44.411Z,3.00
2022-09-12T16:03:21.800Z,2.83
2022-09-12T16:05:49.653Z,2.80
2022-09-12T16:08:17.434Z,4.20
2022-09-12T16:10:45.440Z,2.80
2022-09-12T16:13:13.290Z,4.30
2022-09-12T16:15:42.462Z,3.00
2022-09-12T16:18:10.238Z,3.63
2022-09-12T16:20:40.720Z,3.57
2022-09-12T16:23:08.635Z,2.87
2022-09-12T16:25:37.515Z,3.53
2022-09-12T16:28:06.469Z,3.03
2022-09-12T16:30:34.386Z,3.10
2022-09-12T16:33:03.830Z,2.80
2022-09-12T16:35:32.622Z,3.10
2022-09-12T16:38:00.435Z,3.03
2022-09-12T16:40:28.079Z,3.00
2022-09-12T16:42:55.897Z,2.47
2022-09-12T16:45:23.632Z,3.07
2022-09-12T16:47:51.276Z,3.63
2022-09-12T16:50:20.331Z,4.00
2022-09-12T16:52:48.092Z,3.80
2022-09-12T16:55:15.710Z,3.60
2022-09-12T16:57:43.327Z,3.50
2022-09-12T17:00:12.128Z,2.90
2022-09-12T17:02:39.832Z,2.90
2022-09-12T17:05:08.211Z,4.53
2022-09-12T17:07:37.287Z,3.13
2022-09-12T17:10:05.676Z,3.47
2022-09-12T17:12:33.431Z,2.80
2022-09-12T17:15:01.197Z,4.40
2022-09-12T17:17:28.874Z,4.17
2022-09-12T17:19:56.569Z,6.03
2022-09-12T17:22:24.185Z,3.10
2022-09-12T17:24:53.264Z,3.60
2022-09-12T17:27:21.069Z,3.07
2022-09-12T17:29:48.940Z,3.40
2022-09-12T17:32:17.715Z,3.13
2022-09-12T17:34:45.645Z,3.50
2022-09-12T17:37:13.492Z,3.27
2022-09-12T17:39:41.360Z,2.80
2022-09-12T17:42:10.440Z,3.20
2022-09-12T17:44:38.188Z,3.00
2022-09-12T17:47:06.107Z,3.50
2022-09-12T17:49:34.314Z,5.13
2022-09-12T17:52:02.249Z,3.40
2022-09-12T17:54:29.970Z,3.10
2022-09-12T17:56:57.581Z,3.80
2022-09-12T17:59:26.669Z,4.70
2022-09-12T18:02:11.830Z,3.50
2022-09-12T18:04:40.546Z,3.77
2022-09-12T18:07:08.492Z,7.03
2022-09-12T18:09:37.280Z,5.10
2022-09-12T18:12:06.272Z,5.13
2022-09-12T18:14:35.745Z,4.73
2022-09-12T18:17:03.386Z,4.30
2022-09-12T18:19:31.885Z,5.60
2022-09-12T18:21:59.642Z,4.50
2022-09-12T18:24:27.391Z,4.20
2022-09-12T18:26:56.560Z,4.70
2022-09-12T18:29:24.767Z,5.27
2022-09-12T18:31:53.748Z,6.10
2022-09-12T18:34:21.510Z,6.30
2022-09-12T18:36:51.234Z,5.10
2022-09-12T18:39:20.523Z,5.93
2022-09-12T18:41:49.816Z,5.40
2022-09-12T18:44:17.568Z,6.87
2022-09-12T18:46:45.591Z,4.20
2022-09-12T18:49:14.773Z,6.47
2022-09-12T18:51:42.428Z,6.03
2022-09-12T18:54:14.164Z,6.93
2022-09-12T18:56:43.960Z,7.40
2022-09-12T18:59:12.827Z,6.03
2022-09-12T19:01:40.974Z,5.53
2022-09-12T19:04:10.333Z,6.60
2022-09-12T19:06:41.903Z,7.33
2022-09-12T19:09:10.664Z,5.07
2022-09-12T19:11:40.382Z,5.27
2022-09-12T19:14:09.106Z,6.47
2022-09-12T19:16:36.914Z,4.67
2022-09-12T19:19:06.058Z,5.13
2022-09-12T19:21:35.174Z,6.13
2022-09-12T19:24:07.217Z,5.07
2022-09-12T19:26:35.690Z,4.60
2022-09-12T19:29:03.430Z,5.27
2022-09-12T19:31:32.215Z,5.73
2022-09-12T19:34:01.719Z,23.63
2022-09-12T19:36:47.077Z,5.20
2022-09-12T19:39:17.375Z,5.07
2022-09-12T19:41:45.398Z,4.90
2022-09-12T19:44:13.314Z,5.50
2022-09-12T19:46:41.639Z,5.10
2022-09-12T19:49:12.127Z,4.43
2022-09-12T19:51:40.042Z,5.67
2022-09-12T19:54:07.794Z,6.13
2022-09-12T19:56:36.841Z,4.83
2022-09-12T19:59:04.527Z,7.90
2022-09-12T20:01:33.085Z,7.70
2022-09-12T20:04:00.774Z,5.50
2022-09-12T20:06:28.678Z,7.83
2022-09-12T20:08:56.868Z,6.67
2022-09-12T20:11:25.702Z,5.40
2022-09-12T20:13:54.732Z,7.30
2022-09-12T20:16:24.470Z,8.47
2022-09-12T20:18:56.966Z,6.37
2022-09-12T20:21:31.192Z,5.60
2022-09-12T20:24:02.210Z,7.50
2022-09-12T20:26:30.266Z,5.83
2022-09-12T20:28:59.869Z,4.87
2022-09-12T20:31:27.794Z,5.67
2022-09-12T20:33:55.963Z,7.37
2022-09-12T20:36:24.009Z,5.10
2022-09-12T20:38:53.431Z,5.10
2022-09-12T20:41:21.881Z,5.07
2022-09-12T20:43:51.036Z,5.73
2022-09-12T20:46:22.164Z,4.47
2022-09-12T20:48:50.670Z,8.47
2022-09-12T20:51:19.094Z,5.33
2022-09-12T20:53:46.959Z,7.23
2022-09-12T20:56:15.023Z,5.90
2022-09-12T20:58:44.506Z,7.30
2022-09-12T21:01:15.933Z,7.17
2022-09-12T21:03:46.164Z,5.73
2022-09-12T21:06:16.837Z,4.30
2022-09-12T21:08:44.938Z,4.17
2022-09-12T21:11:12.760Z,3.93
2022-09-12T21:13:40.867Z,3.97
2022-09-12T21:16:11.481Z,4.53
2022-09-12T21:18:40.981Z,4.83
2022-09-12T21:21:11.479Z,3.67
2022-09-12T21:23:39.431Z,3.50
2022-09-12T21:26:07.884Z,5.00
2022-09-12T21:28:35.778Z,4.83
2022-09-12T21:31:03.467Z,3.53
2022-09-12T21:33:31.124Z,3.67
2022-09-12T21:36:03.393Z,3.20
2022-09-12T21:38:32.504Z,3.60
2022-09-12T21:41:05.622Z,3.67
2022-09-12T21:43:33.238Z,4.70
2022-09-12T21:46:00.988Z,3.33
2022-09-12T21:48:29.283Z,3.40
2022-09-12T21:50:56.960Z,3.07
2022-09-12T21:53:24.706Z,3.70
2022-09-12T21:55:53.735Z,3.30
2022-09-12T21:58:21.344Z,3.40
2022-09-12T22:00:49.209Z,3.33
2022-09-12T22:03:18.765Z,3.20
2022-09-12T22:05:46.489Z,4.27
2022-09-12T22:08:14.066Z,5.77
2022-09-12T22:10:42.793Z,4.30
2022-09-12T22:13:11.850Z,3.37
2022-09-12T22:15:41.037Z,4.10
2022-09-12T22:18:09.121Z,3.30
2022-09-12T22:20:36.793Z,4.07
2022-09-12T22:23:24.830Z,4.97
2022-09-12T22:25:55.150Z,6.13
2022-09-12T22:28:25.043Z,6.50
2022-09-12T22:30:54.205Z,4.17
2022-09-12T22:33:22.093Z,3.33
2022-09-12T22:35:49.684Z,3.63
2022-09-12T22:38:17.304Z,3.93
2022-09-12T22:40:44.911Z,3.77
2022-09-12T22:43:12.923Z,6.63
2022-09-12T22:45:43.066Z,3.37
2022-09-12T22:48:10.686Z,4.00
2022-09-12T22:50:38.378Z,4.23
2022-09-12T22:53:06.029Z,4.00
2022-09-12T22:55:33.630Z,4.53
2022-09-12T22:58:01.285Z,3.07
2022-09-12T23:00:29.629Z,4.20
2022-09-12T23:02:59.103Z,3.80
2022-09-12T23:05:26.777Z,4.50
2022-09-12T23:07:55.207Z,3.47
2022-09-12T23:10:23.257Z,5.73
2022-09-12T23:12:50.854Z,4.10
2022-09-12T23:15:18.485Z,3.50
2022-09-12T23:17:46.095Z,5.20
2022-09-12T23:20:15.178Z,3.80
2022-09-12T23:22:42.805Z,3.43
2022-09-12T23:25:10.799Z,5.73
2022-09-12T23:27:39.985Z,4.37
2022-09-12T23:30:09.323Z,4.70
2022-09-12T23:32:37.527Z,3.60
2022-09-12T23:35:05.614Z,5.40
2022-09-12T23:37:34.568Z,5.03
2022-09-12T23:40:02.534Z,4.20
2022-09-12T23:42:30.198Z,3.27
2022-09-12T23:44:57.821Z,3.10
2022-09-12T23:47:25.464Z,3.43
2022-09-12T23:49:53.036Z,3.53
2022-09-12T23:52:20.665Z,2.97
2022-09-12T23:54:49.599Z,3.73
2022-09-12T23:57:17.244Z,3.60
2022-09-12T23:59:47.599Z,4.97
